createdAt,value
2022-11-29T00:00:03.334Z,100650.34
2022-11-29T00:03:19.477Z,100673.09
2022-11-29T00:06:12.255Z,100689.53
2022-11-29T00:09:01.671Z,100606.59
2022-11-29T00:12:06.877Z,100665.69
2022-11-29T00:14:53.055Z,100684.34
2022-11-29T00:17:42.624Z,100650.09
2022-11-29T00:20:29.111Z,100636.47
2022-11-29T00:23:21.228Z,100695.16
2022-11-29T00:26:08.449Z,100667.94
2022-11-29T00:28:55.447Z,100674.16
2022-11-29T00:31:42.796Z,100669.81
2022-11-29T00:34:29.516Z,100677.94
2022-11-29T00:37:19.139Z,100679.56
2022-11-29T00:40:07.911Z,100671.34
2022-11-29T00:42:54.022Z,100670.31
2022-11-29T00:45:41.272Z,100639.75
2022-11-29T00:48:27.581Z,100665.47
2022-11-29T00:51:14.852Z,100672.38
2022-11-29T00:54:01.423Z,100678.13
2022-11-29T00:56:48.127Z,100673.91
2022-11-29T00:59:34.716Z,100653.38
2022-11-29T01:02:22.578Z,100679.41
2022-11-29T01:05:09.206Z,100674.25
2022-11-29T01:07:56.020Z,100672.03
2022-11-29T01:10:42.549Z,100650.25
2022-11-29T01:13:29.632Z,100686.94
2022-11-29T01:16:17.574Z,100683.06
2022-11-29T01:19:04.886Z,100680.25
2022-11-29T01:21:53.006Z,100680.25
2022-11-29T01:24:39.674Z,100645.75
2022-11-29T01:27:26.260Z,100674.25
2022-11-29T01:30:13.220Z,100667.13
2022-11-29T01:32:59.357Z,100640.81
2022-11-29T01:35:54.745Z,100671.22
2022-11-29T01:38:42.811Z,100672.53
2022-11-29T01:41:32.215Z,100676.28
2022-11-29T01:44:18.211Z,100676.38
2022-11-29T01:47:05.048Z,100659.97
2022-11-29T01:49:51.695Z,100670.88
2022-11-29T01:52:38.411Z,100662.19
2022-11-29T01:55:24.716Z,100667.13
2022-11-29T01:58:11.587Z,100677.94
2022-11-29T02:00:58.791Z,100676.03
2022-11-29T02:03:45.606Z,100677.66
2022-11-29T02:06:32.651Z,100678.72
2022-11-29T02:09:21.924Z,100678.41
2022-11-29T02:12:12.537Z,100672.16
2022-11-29T02:14:59.229Z,100669.94
2022-11-29T02:17:59.103Z,100674.19
2022-11-29T02:21:07.328Z,100678.28
2022-11-29T02:24:02.661Z,100673.34
2022-11-29T02:27:13.772Z,100676.03
2022-11-29T02:30:09.250Z,100676.53
2022-11-29T02:33:13.233Z,100676.53
2022-11-29T02:36:27.614Z,100657.50
2022-11-29T02:39:14.463Z,100677.00
2022-11-29T02:42:03.957Z,100689.22
2022-11-29T02:45:28.391Z,100687.78
2022-11-29T02:48:28.434Z,100683.94
2022-11-29T02:51:25.777Z,100625.03
2022-11-29T02:54:36.386Z,100695.31
2022-11-29T02:57:40.016Z,100655.06
2022-11-29T03:00:26.971Z,100693.56
2022-11-29T03:03:22.038Z,100661.78
2022-11-29T03:06:18.122Z,100711.44
2022-11-29T03:09:20.125Z,100689.81
2022-11-29T03:12:10.241Z,100700.50
2022-11-29T03:15:16.014Z,100703.44
2022-11-29T03:18:26.816Z,100699.94
2022-11-29T03:21:24.689Z,100706.97
2022-11-29T03:24:21.273Z,100641.03
2022-11-29T03:27:14.072Z,100674.34
2022-11-29T03:30:05.115Z,100672.47
2022-11-29T03:33:10.261Z,100704.50
2022-11-29T03:36:07.236Z,100694.88
2022-11-29T03:38:58.716Z,100703.31
2022-11-29T03:41:49.477Z,100702.75
2022-11-29T03:44:40.995Z,100699.59
2022-11-29T03:47:31.612Z,100711.91
2022-11-29T03:50:23.719Z,100706.97
2022-11-29T03:53:34.292Z,100695.13
2022-11-29T03:56:32.218Z,100722.00
2022-11-29T03:59:33.957Z,100715.81
2022-11-29T04:02:58.051Z,100731.66
2022-11-29T04:05:54.827Z,100725.66
2022-11-29T04:09:02.756Z,100732.38
2022-11-29T04:12:04.181Z,100717.44
2022-11-29T04:14:56.864Z,100734.13
2022-11-29T04:18:01.139Z,100704.53
2022-11-29T04:21:01.934Z,100737.88
2022-11-29T04:24:28.696Z,100737.28
2022-11-29T04:27:33.788Z,100733.75
2022-11-29T04:30:22.158Z,100700.75
2022-11-29T04:33:17.273Z,100743.38
2022-11-29T04:36:29.655Z,100708.47
2022-11-29T04:39:56.828Z,100734.56
2022-11-29T04:43:14.915Z,100745.72
2022-11-29T04:46:07.581Z,100750.88
2022-11-29T04:48:59.845Z,100747.97
2022-11-29T04:51:55.430Z,100746.31
2022-11-29T04:54:57.204Z,100750.06
2022-11-29T04:57:47.946Z,100758.75
2022-11-29T05:00:47.263Z,100762.53
2022-11-29T05:03:49.339Z,100750.16
2022-11-29T05:07:06.048Z,100764.38
2022-11-29T05:10:25.333Z,100717.50
2022-11-29T05:13:29.338Z,100688.63
2022-11-29T05:16:25.675Z,100746.03
2022-11-29T05:19:27.387Z,100760.25
2022-11-29T05:22:40.006Z,100773.16
2022-11-29T05:25:46.344Z,100771.75
2022-11-29T05:28:51.525Z,100770.13
2022-11-29T05:32:00.606Z,100748.25
2022-11-29T05:35:06.055Z,100775.75
2022-11-29T05:37:55.467Z,100687.47
2022-11-29T05:41:23.547Z,100764.78
2022-11-29T05:44:14.628Z,100742.59
2022-11-29T05:47:06.391Z,100779.13
2022-11-29T05:50:30.922Z,100797.53
2022-11-29T05:53:55.454Z,100786.16
2022-11-29T05:56:51.728Z,100791.94
2022-11-29T05:59:39.234Z,100781.81
2022-11-29T06:02:34.703Z,100802.66
2022-11-29T06:05:36.975Z,100791.47
2022-11-29T06:08:51.057Z,100804.28
2022-11-29T06:11:56.874Z,100772.41
2022-11-29T06:15:01.078Z,100807.44
2022-11-29T06:17:53.746Z,100813.66
2022-11-29T06:21:16.524Z,100823.06
2022-11-29T06:24:25.956Z,100821.41
2022-11-29T06:27:34.654Z,100827.84
2022-11-29T06:30:24.204Z,100814.19
2022-11-29T06:33:36.542Z,100835.72
2022-11-29T06:36:28.159Z,100833.25
2022-11-29T06:39:15.086Z,100829.13
2022-11-29T06:42:01.572Z,100835.50
2022-11-29T06:44:47.995Z,100850.03
2022-11-29T06:47:40.206Z,100794.66
2022-11-29T06:50:47.426Z,100851.38
2022-11-29T06:53:44.419Z,100809.31
2022-11-29T06:57:04.531Z,100852.44
2022-11-29T07:00:00.672Z,100867.84
2022-11-29T07:03:15.342Z,100783.16
2022-11-29T07:06:12.252Z,100856.31
2022-11-29T07:09:14.859Z,100853.59
2022-11-29T07:12:01.946Z,100843.13
2022-11-29T07:14:49.915Z,100855.91
2022-11-29T07:17:49.329Z,100865.81
2022-11-29T07:20:48.852Z,100852.19
2022-11-29T07:24:05.843Z,100845.25
2022-11-29T07:27:05.765Z,100846.56
2022-11-29T07:30:01.588Z,100823.28
2022-11-29T07:33:12.244Z,100860.06
2022-11-29T07:36:23.822Z,100789.81
2022-11-29T07:39:51.981Z,100862.47
2022-11-29T07:42:44.641Z,100871.50
2022-11-29T07:45:34.646Z,100869.28
2022-11-29T07:48:21.251Z,100867.88
2022-11-29T07:51:07.471Z,100867.41
2022-11-29T07:53:54.148Z,100883.88
2022-11-29T07:56:40.656Z,100871.44
2022-11-29T07:59:27.233Z,100859.19
2022-11-29T08:02:29.923Z,100879.84
2022-11-29T08:05:18.006Z,100886.31
2022-11-29T08:08:05.177Z,100882.31
2022-11-29T08:10:52.128Z,100885.59
2022-11-29T08:13:38.544Z,100880.66
2022-11-29T08:16:27.278Z,100877.63
2022-11-29T08:19:13.421Z,100881.97
2022-11-29T08:22:02.781Z,100888.03
2022-11-29T08:24:49.207Z,100883.31
2022-11-29T08:27:37.019Z,100888.16
2022-11-29T08:30:24.057Z,100878.72
2022-11-29T08:33:10.874Z,100888.84
2022-11-29T08:36:04.848Z,100899.19
2022-11-29T08:38:57.162Z,100893.19
2022-11-29T08:41:49.373Z,100880.63
2022-11-29T08:44:41.190Z,100865.25
2022-11-29T08:47:36.351Z,100887.88
2022-11-29T08:50:23.072Z,100896.56
2022-11-29T08:53:27.878Z,100906.16
2022-11-29T08:57:04.374Z,100901.44
2022-11-29T08:59:23.135Z,100897.47
2022-11-29T09:02:12.443Z,100890.59
2022-11-29T09:05:06.276Z,100904.28
2022-11-29T09:07:53.072Z,100906.06
2022-11-29T09:10:40.693Z,100869.22
2022-11-29T09:13:27.370Z,100878.06
2022-11-29T09:16:18.151Z,100911.91
2022-11-29T09:19:05.858Z,100868.41
2022-11-29T09:21:52.083Z,100905.47
2022-11-29T09:24:38.475Z,100887.19
2022-11-29T09:27:24.830Z,100905.13
2022-11-29T09:30:14.738Z,100891.53
2022-11-29T09:33:04.919Z,100906.16
2022-11-29T09:35:51.358Z,100900.38
2022-11-29T09:38:38.209Z,100902.72
2022-11-29T09:41:31.059Z,100872.75
2022-11-29T09:44:43.433Z,100904.34
2022-11-29T09:47:56.487Z,100899.78
2022-11-29T09:51:01.304Z,100904.34
2022-11-29T09:54:03.411Z,100887.22
2022-11-29T09:56:53.108Z,100922.25
2022-11-29T09:59:43.441Z,100908.84
2022-11-29T10:02:47.861Z,100894.41
2022-11-29T10:06:07.238Z,100912.06
2022-11-29T10:09:03.777Z,100912.66
2022-11-29T10:11:53.289Z,100845.47
2022-11-29T10:14:52.689Z,100910.47
2022-11-29T10:17:43.901Z,100904.56
2022-11-29T10:20:36.497Z,100907.03
2022-11-29T10:23:32.349Z,100899.38
2022-11-29T10:26:20.423Z,100908.44
2022-11-29T10:29:07.142Z,100920.59
2022-11-29T10:31:56.845Z,100910.25
2022-11-29T10:34:46.231Z,100920.13
2022-11-29T10:37:33.119Z,100915.78
2022-11-29T10:40:22.717Z,100903.19
2022-11-29T10:43:09.237Z,100924.84
2022-11-29T10:46:03.586Z,100904.16
2022-11-29T10:49:02.428Z,100865.44
2022-11-29T10:51:49.174Z,100912.63
2022-11-29T10:54:45.300Z,100849.94
2022-11-29T10:57:41.444Z,100884.75
2022-11-29T11:00:28.988Z,100921.38
2022-11-29T11:03:30.949Z,100925.47
2022-11-29T11:06:45.692Z,100864.28
2022-11-29T11:09:41.631Z,100928.56
2022-11-29T11:12:35.997Z,100932.91
2022-11-29T11:15:32.235Z,100923.16
2022-11-29T11:18:37.075Z,100936.88
2022-11-29T11:21:32.677Z,100893.22
2022-11-29T11:24:34.806Z,100911.34
2022-11-29T11:30:37.550Z,100880.50
2022-11-29T11:33:45.817Z,100928.16
2022-11-29T11:36:37.344Z,100947.22
2022-11-29T11:39:34.304Z,100927.56
2022-11-29T11:42:41.132Z,100932.16
2022-11-29T11:45:39.104Z,100945.34
2022-11-29T11:48:31.116Z,100937.78
2022-11-29T11:51:27.568Z,100941.69
2022-11-29T11:54:17.190Z,100924.72
2022-11-29T11:57:10.648Z,100932.63
2022-11-29T12:00:07.058Z,100906.88
2022-11-29T12:03:40.382Z,100934.41
2022-11-29T12:06:54.072Z,100946.41
2022-11-29T12:09:53.849Z,100942.50
2022-11-29T12:12:45.952Z,100946.28
2022-11-29T12:15:38.652Z,100943.66
2022-11-29T12:19:12.379Z,100958.13
2022-11-29T12:22:07.437Z,100950.22
2022-11-29T12:25:04.983Z,100948.59
2022-11-29T12:28:05.054Z,100950.69
2022-11-29T12:31:10.408Z,100917.34
2022-11-29T12:34:22.071Z,100957.16
2022-11-29T12:37:32.966Z,100961.50
2022-11-29T12:40:44.778Z,100962.34
2022-11-29T12:43:52.580Z,100955.88
2022-11-29T12:46:39.859Z,100934.91
2022-11-29T12:49:47.324Z,100945.75
2022-11-29T12:53:23.955Z,100959.19
2022-11-29T12:56:30.014Z,100955.63
2022-11-29T12:59:38.305Z,100952.00
2022-11-29T13:02:35.283Z,100960.44
2022-11-29T13:05:25.293Z,100932.44
2022-11-29T13:08:30.266Z,100962.53
2022-11-29T13:11:37.318Z,100962.34
2022-11-29T13:14:42.772Z,100950.56
2022-11-29T13:17:35.881Z,100933.13
2022-11-29T13:20:38.841Z,100972.28
2022-11-29T13:23:45.538Z,100975.13
2022-11-29T13:26:42.389Z,100935.59
2022-11-29T13:29:32.254Z,100973.72
2022-11-29T13:32:30.368Z,100984.53
2022-11-29T13:35:22.758Z,100986.38
2022-11-29T13:38:23.904Z,100972.72
2022-11-29T13:41:23.429Z,100989.53
2022-11-29T13:44:31.126Z,100927.13
2022-11-29T13:47:19.245Z,101000.34
2022-11-29T13:50:18.783Z,100982.00
2022-11-29T13:53:23.935Z,101014.53
2022-11-29T13:56:26.146Z,100987.53
2022-11-29T13:59:24.266Z,100997.22
2022-11-29T14:02:30.520Z,101010.25
2022-11-29T14:05:25.732Z,100978.69
2022-11-29T14:08:42.144Z,101019.09
2022-11-29T14:11:52.003Z,100990.34
2022-11-29T14:15:18.452Z,101016.50
2022-11-29T14:18:09.726Z,100987.47
2022-11-29T14:20:57.214Z,100995.50
2022-11-29T14:23:44.604Z,101008.31
2022-11-29T14:26:34.786Z,101030.00
2022-11-29T14:29:47.670Z,101032.47
2022-11-29T14:32:56.608Z,101023.25
2022-11-29T14:35:47.532Z,101033.16
2022-11-29T14:38:53.251Z,101010.88
2022-11-29T14:41:55.455Z,101028.41
2022-11-29T14:44:47.493Z,101030.00
2022-11-29T14:47:47.646Z,101021.97
2022-11-29T14:50:37.036Z,101025.88
2022-11-29T14:53:33.546Z,101030.16
2022-11-29T14:56:29.103Z,100993.25
2022-11-29T14:59:50.784Z,101033.66
2022-11-29T15:03:02.426Z,101037.41
2022-11-29T15:06:01.124Z,101016.13
2022-11-29T15:08:54.976Z,101038.00
2022-11-29T15:11:51.064Z,101040.94
2022-11-29T15:15:18.919Z,101038.84
2022-11-29T15:18:46.798Z,101044.84
2022-11-29T15:21:58.730Z,101053.16
2022-11-29T15:24:52.724Z,101045.50
2022-11-29T15:28:25.437Z,101040.09
2022-11-29T15:31:15.631Z,101040.94
2022-11-29T15:34:02.621Z,101042.59
2022-11-29T15:36:49.010Z,101042.22
2022-11-29T15:39:38.122Z,101050.31
2022-11-29T15:42:28.285Z,101048.91
2022-11-29T15:45:29.485Z,101053.84
2022-11-29T15:48:19.278Z,101003.72
2022-11-29T15:51:15.592Z,101053.91
2022-11-29T15:54:34.086Z,101012.38
2022-11-29T15:57:26.771Z,101047.44
2022-11-29T16:00:23.325Z,101033.91
2022-11-29T16:03:26.464Z,101048.59
2022-11-29T16:06:23.978Z,101063.59
2022-11-29T16:09:13.337Z,101041.41
2022-11-29T16:12:18.098Z,101050.00
2022-11-29T16:15:08.093Z,101016.63
2022-11-29T16:18:22.466Z,101059.53
2022-11-29T16:21:25.746Z,101024.53
2022-11-29T16:24:20.764Z,101056.09
2022-11-29T16:27:08.261Z,101035.06
2022-11-29T16:29:55.917Z,101063.28
2022-11-29T16:32:45.719Z,101039.88
2022-11-29T16:35:43.910Z,101083.59
2022-11-29T16:38:32.519Z,101081.00
2022-11-29T16:41:33.453Z,101069.66
2022-11-29T16:44:44.629Z,101084.50
2022-11-29T16:47:52.991Z,101088.03
2022-11-29T16:50:41.477Z,101064.75
2022-11-29T16:53:40.544Z,101093.00
2022-11-29T16:56:28.432Z,101085.09
2022-11-29T16:59:26.358Z,101071.53
2022-11-29T17:02:21.136Z,101086.25
2022-11-29T17:05:09.178Z,101078.34
2022-11-29T17:08:00.560Z,101087.44
2022-11-29T17:10:50.317Z,101093.44
2022-11-29T17:13:40.557Z,101088.94
2022-11-29T17:16:31.083Z,101041.22
2022-11-29T17:19:19.492Z,101078.75
2022-11-29T17:22:11.626Z,101056.91
2022-11-29T17:24:57.676Z,101096.97
2022-11-29T17:27:44.912Z,101096.44
2022-11-29T17:30:35.988Z,101106.09
2022-11-29T17:33:33.481Z,101107.75
2022-11-29T17:36:28.023Z,101076.19
2022-11-29T17:39:20.323Z,101104.59
2022-11-29T17:42:13.713Z,101084.00
2022-11-29T17:45:02.992Z,101092.59
2022-11-29T17:47:55.221Z,101104.59
2022-11-29T17:50:50.487Z,101075.28
2022-11-29T17:53:36.890Z,101107.00
2022-11-29T17:56:25.461Z,101105.22
2022-11-29T17:59:13.112Z,101111.91
2022-11-29T18:02:02.090Z,101121.03
2022-11-29T18:04:50.971Z,101069.41
2022-11-29T18:08:00.057Z,101111.22
2022-11-29T18:10:46.843Z,101097.78
2022-11-29T18:13:40.086Z,101096.75
2022-11-29T18:16:34.223Z,101111.44
2022-11-29T18:19:24.045Z,101107.69
2022-11-29T18:22:19.295Z,101109.09
2022-11-29T18:25:36.796Z,101115.56
2022-11-29T18:28:12.380Z,101114.75
2022-11-29T18:31:04.672Z,101113.91
2022-11-29T18:33:53.565Z,101121.19
2022-11-29T18:36:56.492Z,101109.78
2022-11-29T18:39:45.789Z,101124.06
2022-11-29T18:42:37.379Z,101125.09
2022-11-29T18:45:26.848Z,101115.03
2022-11-29T18:48:14.188Z,101064.47
2022-11-29T18:51:03.392Z,101113.25
2022-11-29T18:53:50.124Z,101101.16
2022-11-29T18:56:37.468Z,101111.16
2022-11-29T18:59:29.329Z,101125.69
2022-11-29T19:02:20.003Z,101130.50
2022-11-29T19:05:09.868Z,101110.91
2022-11-29T19:08:01.518Z,101124.34
2022-11-29T19:10:51.426Z,101098.16
2022-11-29T19:13:38.024Z,101132.00
2022-11-29T19:16:29.989Z,101136.13
2022-11-29T19:19:21.386Z,101123.16
2022-11-29T19:22:08.981Z,101152.47
2022-11-29T19:24:57.282Z,101131.59
2022-11-29T19:27:47.341Z,101144.16
2022-11-29T19:30:44.417Z,101141.66
2022-11-29T19:33:33.272Z,101082.63
2022-11-29T19:36:34.514Z,101143.09
2022-11-29T19:39:21.094Z,101150.31
2022-11-29T19:42:10.094Z,101128.84
2022-11-29T19:45:17.449Z,101144.53
2022-11-29T19:48:14.414Z,101143.41
2022-11-29T19:51:05.314Z,101148.44
2022-11-29T19:53:59.270Z,101065.34
2022-11-29T19:56:50.729Z,101140.63
2022-11-29T19:59:40.370Z,101148.66
2022-11-29T20:02:29.384Z,101155.50
2022-11-29T20:05:16.112Z,101147.16
2022-11-29T20:08:06.937Z,101142.66
2022-11-29T20:11:14.226Z,101144.75
2022-11-29T20:14:04.383Z,101121.25
2022-11-29T20:17:02.098Z,101125.16
2022-11-29T20:19:58.631Z,101136.50
2022-11-29T20:22:56.307Z,101128.41
2022-11-29T20:25:52.134Z,101155.78
2022-11-29T20:28:42.028Z,101159.91
2022-11-29T20:31:31.232Z,101161.72
2022-11-29T20:34:30.687Z,101152.25
2022-11-29T20:37:57.727Z,101120.66
2022-11-29T20:41:23.788Z,101146.09
2022-11-29T20:44:16.418Z,101175.47
2022-11-29T20:47:29.380Z,101157.81
2022-11-29T20:50:27.567Z,101155.09
2022-11-29T20:53:26.305Z,101111.19
2022-11-29T20:56:14.632Z,101100.53
2022-11-29T20:59:02.103Z,101150.31
2022-11-29T21:01:50.805Z,101175.97
2022-11-29T21:04:39.192Z,101175.22
2022-11-29T21:07:26.412Z,101163.88
2022-11-29T21:10:15.634Z,101178.38
2022-11-29T21:13:06.215Z,101163.38
2022-11-29T21:15:55.918Z,101137.00
2022-11-29T21:18:45.577Z,101176.28
2022-11-29T21:22:03.756Z,101159.91
2022-11-29T21:25:14.566Z,101189.47
2022-11-29T21:28:01.233Z,101182.13
2022-11-29T21:30:50.443Z,101128.09
2022-11-29T21:33:47.447Z,101101.69
2022-11-29T21:36:36.246Z,101133.41
2022-11-29T21:39:29.046Z,101193.19
2022-11-29T21:42:21.509Z,101178.53
2022-11-29T21:45:15.808Z,101183.63
2022-11-29T21:48:29.157Z,101192.63
2022-11-29T21:51:18.305Z,101200.06
2022-11-29T21:54:09.550Z,101150.75
2022-11-29T21:56:59.432Z,101188.97
2022-11-29T21:59:46.863Z,101175.75
2022-11-29T22:02:41.173Z,101191.81
2022-11-29T22:05:28.498Z,101186.78
2022-11-29T22:08:16.147Z,101196.19
2022-11-29T22:11:19.522Z,101112.41
2022-11-29T22:14:14.648Z,101176.66
2022-11-29T22:17:13.664Z,101209.09
2022-11-29T22:19:59.751Z,101165.72
2022-11-29T22:22:49.127Z,101165.25
2022-11-29T22:25:44.292Z,101181.75
2022-11-29T22:28:34.938Z,101184.75
2022-11-29T22:31:21.410Z,101196.47
2022-11-29T22:34:08.199Z,101196.91
2022-11-29T22:36:57.367Z,101209.16
2022-11-29T22:39:44.164Z,101204.19
2022-11-29T22:42:30.438Z,101199.22
2022-11-29T22:45:17.339Z,101186.41
2022-11-29T22:48:13.622Z,101198.44
2022-11-29T22:51:08.240Z,101117.97
2022-11-29T22:53:57.109Z,101151.91
2022-11-29T22:56:45.701Z,101198.56
2022-11-29T22:59:34.937Z,101186.88
2022-11-29T23:02:24.820Z,101165.16
2022-11-29T23:05:17.208Z,101189.94
2022-11-29T23:08:04.197Z,101203.38
2022-11-29T23:10:57.569Z,101182.50
2022-11-29T23:13:47.075Z,101199.47
2022-11-29T23:16:33.705Z,101167.28
2022-11-29T23:19:28.662Z,101194.28
2022-11-29T23:22:15.137Z,101196.97
2022-11-29T23:25:01.845Z,101166.66
2022-11-29T23:27:51.077Z,101188.38
2022-11-29T23:30:37.656Z,101145.88
2022-11-29T23:33:29.180Z,101190.78
2022-11-29T23:36:18.149Z,101178.63
2022-11-29T23:39:07.584Z,101202.84
2022-11-29T23:41:53.948Z,101199.31
2022-11-29T23:44:40.359Z,101200.28
2022-11-29T23:47:27.605Z,101165.81
2022-11-29T23:50:14.565Z,101196.63
2022-11-29T23:53:01.139Z,101160.22
2022-11-29T23:56:01.129Z,101163.06
2022-11-29T23:58:47.987Z,101187.03
